Time;durP1;ratioP1;P1;durP2;ratioP2;P2;SDS_P1;SDS_P2;PMS_P1;PMS_P2;Temp;Humidity;BMP_temperature;BMP_pressure;BME280_temperature;BME280_humidity;BME280_pressure;Samples;Min_cycle;Max_cycle;Signal;HPM_P1;HPM_P2
2022/01/05 00:01:48;;;;;;;16.52;2.78;;;;;;;3.57;95.29;100044.94;5096624;28;20054;-64
2022/01/05 00:04:14;;;;;;;11.57;2.97;;;;;;;3.44;93.58;100046.66;5096964;28;20031;-67
2022/01/05 00:06:39;;;;;;;14.52;2.80;;;;;;;3.50;95.24;100053.53;5096870;28;20024;-64
2022/01/05 00:09:04;;;;;;;16.08;2.70;;;;;;;3.48;95.01;100057.84;5097006;28;20032;-65
2022/01/05 00:11:29;;;;;;;14.13;2.53;;;;;;;3.47;94.92;100058.69;5096712;28;20123;-65
2022/01/05 00:13:56;;;;;;;12.80;2.58;;;;;;;3.40;95.03;100057.84;5096530;28;20458;-65
2022/01/05 00:16:22;;;;;;;17.90;2.70;;;;;;;3.40;94.03;100056.97;5096771;28;20035;-64
2022/01/05 00:18:47;;;;;;;11.05;2.30;;;;;;;3.32;94.55;100063.81;5096747;28;20032;-65
2022/01/05 00:21:12;;;;;;;13.30;2.35;;;;;;;3.36;95.14;100063.84;5096983;28;20035;-66
2022/01/05 00:23:37;;;;;;;11.57;2.50;;;;;;;3.30;93.89;100050.03;5096947;28;20395;-66
2022/01/05 00:26:04;;;;;;;15.45;2.40;;;;;;;3.28;94.76;100056.94;5096591;28;20024;-66
2022/01/05 00:28:30;;;;;;;13.05;2.10;;;;;;;3.17;93.78;100053.44;5096850;28;20039;-67
2022/01/05 00:30:56;;;;;;;15.52;2.92;;;;;;;3.11;94.19;100055.16;5096479;28;20036;-66
2022/01/05 00:33:21;;;;;;;14.35;2.92;;;;;;;3.08;94.04;100056.88;5096789;28;20060;-65
2022/01/05 00:35:46;;;;;;;10.70;2.63;;;;;;;2.93;94.26;100036.13;5096411;28;20526;-65
2022/01/05 00:38:11;;;;;;;12.57;2.47;;;;;;;3.04;94.23;100057.69;5100151;28;20091;-64
2022/01/05 00:40:37;;;;;;;9.98;2.53;;;;;;;2.99;94.31;100054.22;5101901;28;20390;-65
2022/01/05 00:43:02;;;;;;;12.77;2.40;;;;;;;2.92;94.24;100047.31;5096701;28;20064;-68
2022/01/05 00:45:28;;;;;;;15.50;2.55;;;;;;;2.91;94.61;100063.69;5096140;28;20484;-66
2022/01/05 00:47:53;;;;;;;15.10;2.35;;;;;;;2.83;94.16;100061.03;5095787;28;20437;-65
2022/01/05 00:50:18;;;;;;;10.85;2.30;;;;;;;2.80;93.90;100066.19;5095990;28;20032;-66
2022/01/05 00:52:43;;;;;;;13.88;2.85;;;;;;;2.75;94.26;100065.31;5095974;28;20043;-67
2022/01/05 00:55:09;;;;;;;14.02;2.60;;;;;;;2.76;93.45;100079.97;5096005;28;20034;-66
2022/01/05 00:57:35;;;;;;;13.38;2.80;;;;;;;2.73;93.38;100077.34;5095746;28;20423;-65
2022/01/05 01:00:01;;;;;;;18.98;2.95;;;;;;;2.68;93.39;100099.72;5095779;28;20126;-67
2022/01/05 01:02:26;;;;;;;12.73;3.17;;;;;;;2.59;94.85;100081.59;5095700;28;20024;-64
2022/01/05 01:04:51;;;;;;;12.00;2.80;;;;;;;2.65;93.90;100100.53;5095951;28;20024;-66
2022/01/05 01:07:16;;;;;;;10.90;2.97;;;;;;;2.61;93.91;100087.59;5078090;28;20036;-66
2022/01/05 01:09:42;;;;;;;11.32;3.40;;;;;;;2.61;94.15;100101.38;5095793;28;20024;-64
2022/01/05 01:12:08;;;;;;;11.40;2.92;;;;;;;2.53;93.78;100074.66;5095513;28;20431;-69
2022/01/05 01:14:33;;;;;;;13.25;3.17;;;;;;;2.61;93.98;100095.34;5095913;28;20351;-63
2022/01/05 01:16:58;;;;;;;12.70;3.50;;;;;;;2.54;93.94;100097.03;5095947;28;20028;-67
2022/01/05 01:19:24;;;;;;;10.75;2.60;;;;;;;2.48;93.74;100096.13;5095571;28;20111;-69
2022/01/05 01:21:49;;;;;;;11.13;3.53;;;;;;;2.48;94.27;100106.44;5095611;28;20028;-68
2022/01/05 01:24:15;;;;;;;15.20;2.75;;;;;;;2.41;93.61;100110.72;5095704;28;20097;-66
2022/01/05 01:26:42;;;;;;;12.77;3.17;;;;;;;2.38;93.57;100103.81;5095618;28;20030;-67
2022/01/05 01:29:07;;;;;;;13.70;3.15;;;;;;;2.40;94.56;100102.09;5095139;28;20020;-66
2022/01/05 01:31:32;;;;;;;17.80;3.53;;;;;;;2.39;93.32;100105.53;5095530;28;20039;-66
2022/01/05 01:33:58;;;;;;;13.38;3.65;;;;;;;2.36;93.32;100100.34;5095223;28;20028;-68
2022/01/05 01:36:23;;;;;;;13.15;2.92;;;;;;;2.34;93.34;100106.34;5095257;28;20347;-64
2022/01/05 01:38:48;;;;;;;12.27;2.92;;;;;;;2.35;94.08;100121.00;5095292;28;20097;-66
2022/01/05 01:41:14;;;;;;;10.57;2.38;;;;;;;2.30;93.04;100120.06;5095319;28;20028;-65
2022/01/05 01:43:40;;;;;;;12.93;2.95;;;;;;;2.27;93.64;100096.81;5095988;28;20106;-66
2022/01/05 01:46:06;;;;;;;10.65;3.38;;;;;;;2.24;93.94;100115.75;5099906;28;20031;-64
2022/01/05 01:48:32;;;;;;;12.13;3.38;;;;;;;2.22;93.91;100103.69;5100151;28;20039;-64
2022/01/05 01:50:58;;;;;;;18.13;2.95;;;;;;;2.21;93.14;100109.69;5095175;28;20362;-64
2022/01/05 01:53:23;;;;;;;13.48;2.85;;;;;;;2.16;93.55;100109.66;5095411;28;20028;-64
2022/01/05 01:55:50;;;;;;;10.77;2.95;;;;;;;2.19;93.01;100108.81;5095244;28;20028;-64
2022/01/05 01:58:18;;;;;;;9.40;2.78;;;;;;;2.09;94.54;100105.25;5093992;28;20032;-64
2022/01/05 02:00:43;;;;;;;12.40;2.78;;;;;;;2.06;93.75;100102.69;5095015;28;20032;-69
2022/01/05 02:03:09;;;;;;;10.77;2.72;;;;;;;2.05;93.44;100111.28;5095010;28;20028;-66
2022/01/05 02:05:35;;;;;;;12.10;2.60;;;;;;;2.12;92.90;100123.38;5094936;28;20553;-65
2022/01/05 02:08:02;;;;;;;11.88;3.08;;;;;;;2.08;92.86;100117.31;5094625;28;20024;-65
2022/01/05 02:10:27;;;;;;;11.48;2.60;;;;;;;2.07;93.29;100107.00;5094928;28;20024;-66
2022/01/05 02:12:52;;;;;;;14.18;2.72;;;;;;;2.02;93.19;100106.94;5094876;28;20059;-66
2022/01/05 02:15:18;;;;;;;11.40;2.70;;;;;;;2.01;91.89;100117.25;5094920;28;20028;-66
2022/01/05 02:17:54;;;;;;;11.80;2.72;;;;;;;1.98;92.38;100117.22;5094911;28;20062;-67
2022/01/05 02:20:27;;;;;;;8.30;2.33;;;;;;;2.00;93.32;100113.81;5094982;28;20032;-63
2022/01/05 02:22:53;;;;;;;12.48;2.90;;;;;;;1.95;91.19;100114.59;5094862;28;20075;-64
2022/01/05 02:25:19;;;;;;;11.02;2.80;;;;;;;1.99;92.25;100111.22;5095041;28;20466;-66
2022/01/05 02:27:46;;;;;;;10.95;2.60;;;;;;;1.92;91.95;100114.56;5094909;28;20115;-65
2022/01/05 02:30:14;;;;;;;14.30;2.75;;;;;;;1.95;92.74;100118.03;5094509;28;20450;-65
2022/01/05 02:32:39;;;;;;;13.45;2.40;;;;;;;1.93;92.86;100118.88;5094928;28;20032;-65
2022/01/05 02:35:05;;;;;;;13.18;2.47;;;;;;;1.91;91.79;100124.03;5095078;28;20476;-67
2022/01/05 02:37:31;;;;;;;11.98;2.58;;;;;;;1.90;92.27;100129.19;5094763;28;20032;-65
2022/01/05 02:39:57;;;;;;;22.10;2.83;;;;;;;1.87;91.98;100134.31;5094657;28;20036;-67
2022/01/05 02:42:29;;;;;;;16.48;2.70;;;;;;;1.82;92.81;100128.25;5094257;28;20446;-65
2022/01/05 02:44:56;;;;;;;12.25;2.60;;;;;;;1.82;92.58;100131.69;5094693;28;20111;-65
2022/01/05 02:47:22;;;;;;;7.50;2.40;;;;;;;1.77;92.94;100132.47;5094689;28;20036;-65
2022/01/05 02:49:47;;;;;;;17.98;2.80;;;;;;;1.72;92.59;100127.28;5094620;28;20028;-66
2022/01/05 02:52:13;;;;;;;13.27;2.55;;;;;;;1.72;93.22;100130.75;5076307;28;20036;-66
2022/01/05 02:54:38;;;;;;;15.68;2.88;;;;;;;1.73;92.16;100144.50;5094461;28;20097;-65
2022/01/05 02:57:04;;;;;;;9.27;2.75;;;;;;;1.74;91.38;100141.91;5094267;28;20374;-64
2022/01/05 02:59:29;;;;;;;13.07;2.67;;;;;;;1.64;92.22;100144.38;5094698;28;20036;-66
2022/01/05 03:01:55;;;;;;;9.95;2.58;;;;;;;1.57;92.85;100152.88;5094484;28;20510;-69
2022/01/05 03:04:20;;;;;;;10.63;2.47;;;;;;;1.57;93.28;100146.00;5094554;28;20111;-66
2022/01/05 03:06:46;;;;;;;14.95;2.97;;;;;;;1.48;93.08;100140.75;5094435;28;20032;-65
2022/01/05 03:09:11;;;;;;;14.18;2.67;;;;;;;1.51;93.27;100158.84;5094735;28;20039;-65
2022/01/05 03:11:36;;;;;;;13.77;2.80;;;;;;;1.48;93.08;100151.06;5098065;28;20028;-64
2022/01/05 03:14:02;;;;;;;10.80;2.95;;;;;;;1.47;93.34;100157.06;5097982;28;20078;-68
2022/01/05 03:16:27;;;;;;;9.50;2.30;;;;;;;1.45;93.07;100161.34;5097950;28;20024;-66
2022/01/05 03:18:52;;;;;;;9.20;2.55;;;;;;;1.44;93.65;100169.91;5112339;28;20349;-66
2022/01/05 03:21:17;;;;;;;9.45;2.67;;;;;;;1.33;93.28;100156.03;5118491;28;20019;-66
2022/01/05 03:23:46;;;;;;;10.98;2.40;;;;;;;1.38;92.88;100157.84;5118401;28;20039;-65
2022/01/05 03:26:12;;;;;;;10.70;2.35;;;;;;;1.44;93.12;100187.97;5118111;28;20036;-64
2022/01/05 03:28:37;;;;;;;15.30;2.90;;;;;;;1.37;93.86;100179.31;5118033;28;20081;-66
2022/01/05 03:31:02;;;;;;;13.00;2.83;;;;;;;1.41;93.46;100177.59;5118290;28;20027;-64
2022/01/05 03:33:28;;;;;;;12.93;2.88;;;;;;;1.39;93.21;100180.16;5118105;28;20119;-65
2022/01/05 03:35:53;;;;;;;14.02;2.60;;;;;;;1.43;93.40;100186.22;5118258;28;20028;-69
2022/01/05 03:38:19;;;;;;;13.68;2.67;;;;;;;1.39;93.62;100187.03;5118018;28;20434;-65
2022/01/05 03:40:47;;;;;;;13.00;2.70;;;;;;;1.34;93.43;100178.41;5117804;28;20038;-65
2022/01/05 03:43:12;;;;;;;14.48;2.92;;;;;;;1.37;93.08;100193.91;5117943;28;20164;-65
2022/01/05 03:45:38;;;;;;;10.05;2.60;;;;;;;1.33;93.40;100205.88;5117994;28;20077;-67
2022/01/05 03:48:06;;;;;;;10.88;2.40;;;;;;;1.33;93.82;100208.47;5117918;28;20032;-65
2022/01/05 03:50:31;;;;;;;12.05;3.05;;;;;;;1.36;92.99;100205.94;5118010;28;20097;-66
2022/01/05 03:52:57;;;;;;;10.65;2.42;;;;;;;1.36;93.15;100199.91;5117676;28;20066;-68
2022/01/05 03:55:22;;;;;;;13.18;2.65;;;;;;;1.38;93.67;100205.94;5117572;28;20039;-64
2022/01/05 03:57:47;;;;;;;13.98;2.38;;;;;;;1.44;93.40;100208.59;5117515;28;20100;-65
2022/01/05 04:00:14;;;;;;;15.45;2.90;;;;;;;1.48;93.60;100204.34;5117784;28;20031;-64
2022/01/05 04:02:40;;;;;;;9.35;2.17;;;;;;;1.54;92.88;100197.56;5117590;28;20046;-66
2022/01/05 04:05:06;;;;;;;15.15;2.55;;;;;;;1.52;91.46;100191.53;5117368;28;20147;-65
2022/01/05 04:07:31;;;;;;;12.88;2.60;;;;;;;1.62;92.08;100202.81;5117346;28;20109;-66
2022/01/05 04:09:57;;;;;;;13.63;3.22;;;;;;;1.58;91.75;100191.56;5117443;28;20031;-65
2022/01/05 04:12:22;;;;;;;9.50;2.30;;;;;;;1.63;91.10;100195.09;5117294;28;20461;-69
2022/01/05 04:14:47;;;;;;;16.52;3.13;;;;;;;1.65;91.90;100193.41;5117393;28;20424;-65
2022/01/05 04:17:12;;;;;;;13.60;2.53;;;;;;;1.75;88.68;100200.38;5117274;28;20078;-66
2022/01/05 04:19:38;;;;;;;16.67;3.17;;;;;;;1.65;90.44;100200.25;5117270;28;20036;-67
2022/01/05 04:22:03;;;;;;;15.57;2.78;;;;;;;1.60;90.65;100204.50;5115968;28;20039;-65
2022/01/05 04:24:29;;;;;;;11.93;2.70;;;;;;;1.58;90.33;100209.63;5099553;28;20036;-64
2022/01/05 04:26:54;;;;;;;10.73;2.42;;;;;;;1.57;89.28;100207.88;5117164;28;20039;-68
2022/01/05 04:29:19;;;;;;;12.02;2.83;;;;;;;1.47;91.07;100206.06;5117060;28;20024;-66
2022/01/05 04:31:45;;;;;;;15.68;2.72;;;;;;;1.46;91.12;100217.22;5117068;28;20031;-65
2022/01/05 04:34:11;;;;;;;17.45;3.00;;;;;;;1.44;91.04;100220.63;5116965;28;20102;-66
2022/01/05 04:36:36;;;;;;;14.80;2.80;;;;;;;1.38;90.96;100206.81;5116595;28;20062;-65
2022/01/05 04:39:01;;;;;;;14.02;2.92;;;;;;;1.36;90.37;100218.81;5117017;28;20034;-66
2022/01/05 04:41:26;;;;;;;15.27;2.83;;;;;;;1.37;90.55;100224.84;5116500;28;20020;-66
2022/01/05 04:43:52;;;;;;;16.73;2.75;;;;;;;1.38;90.88;100231.72;5116667;28;20031;-67
2022/01/05 04:46:17;;;;;;;11.48;2.67;;;;;;;1.39;90.73;100238.59;5116684;28;20027;-66
2022/01/05 04:48:42;;;;;;;16.65;3.08;;;;;;;1.38;91.71;100240.31;5116834;28;20411;-64
2022/01/05 04:51:08;;;;;;;16.33;2.75;;;;;;;1.44;91.66;100239.53;5116716;28;20035;-64
2022/01/05 04:53:33;;;;;;;14.10;2.78;;;;;;;1.50;90.41;100237.03;5116074;28;20350;-67
2022/01/05 04:55:59;;;;;;;13.07;2.58;;;;;;;1.57;90.74;100241.41;5116522;28;20027;-63
2022/01/05 04:58:24;;;;;;;17.00;2.70;;;;;;;1.57;91.55;100233.69;5116498;28;20320;-64
2022/01/05 05:00:49;;;;;;;13.25;2.72;;;;;;;1.59;91.82;100228.53;5116604;28;20035;-64
2022/01/05 05:03:14;;;;;;;13.63;3.30;;;;;;;1.63;91.43;100225.16;5116316;28;20350;-66
2022/01/05 05:05:40;;;;;;;12.38;2.65;;;;;;;1.71;91.53;100237.31;5116022;28;20092;-65
2022/01/05 05:08:05;;;;;;;11.68;2.75;;;;;;;1.72;92.21;100231.31;5115807;28;20036;-65
2022/01/05 05:10:31;;;;;;;13.80;2.90;;;;;;;1.81;91.92;100240.00;5116033;28;20115;-66
2022/01/05 05:12:57;;;;;;;14.77;2.47;;;;;;;1.87;91.91;100247.81;5115873;28;20047;-65
2022/01/05 05:15:23;;;;;;;16.65;2.90;;;;;;;2.06;89.82;100249.78;5116158;28;20362;-65
2022/01/05 05:17:48;;;;;;;13.70;2.88;;;;;;;1.93;90.54;100227.25;5115864;28;20035;-64
2022/01/05 05:20:13;;;;;;;12.45;2.92;;;;;;;2.06;90.29;100248.06;5115995;28;20111;-65
2022/01/05 05:22:39;;;;;;;14.52;4.05;;;;;;;2.06;90.41;100242.03;5115817;28;20072;-63
2022/01/05 05:25:05;;;;;;;16.15;3.00;;;;;;;2.05;90.27;100250.63;5115855;28;20027;-64
2022/01/05 05:27:30;;;;;;;14.38;2.92;;;;;;;2.09;90.14;100237.75;5116018;28;20106;-66
2022/01/05 05:29:56;;;;;;;14.45;2.70;;;;;;;2.11;90.38;100245.50;5115466;28;20428;-66
2022/01/05 05:32:21;;;;;;;19.17;3.03;;;;;;;2.08;90.99;100233.44;5115660;28;20038;-67
2022/01/05 05:34:46;;;;;;;17.08;2.88;;;;;;;2.13;90.28;100238.66;5115813;28;20031;-67
2022/01/05 05:37:12;;;;;;;14.80;2.97;;;;;;;2.17;90.25;100232.69;5115491;28;20054;-64
2022/01/05 05:39:37;;;;;;;13.25;3.33;;;;;;;2.03;90.47;100235.13;5115349;28;20346;-65
2022/01/05 05:42:03;;;;;;;17.58;3.47;;;;;;;2.12;91.17;100236.06;5115486;28;20080;-66
2022/01/05 05:44:28;;;;;;;13.98;2.92;;;;;;;2.07;91.06;100234.31;5115939;28;20035;-65
2022/01/05 05:46:53;;;;;;;13.60;3.40;;;;;;;2.04;91.45;100235.97;5115551;28;20067;-65
2022/01/05 05:49:18;;;;;;;21.00;3.60;;;;;;;2.05;92.12;100242.88;5115800;28;20353;-65
2022/01/05 05:51:44;;;;;;;14.38;3.15;;;;;;;2.04;91.09;100248.88;5115512;28;20015;-65
2022/01/05 05:54:09;;;;;;;12.50;3.00;;;;;;;2.06;91.70;100252.34;5115458;28;20031;-65
2022/01/05 05:56:34;;;;;;;16.60;3.15;;;;;;;2.17;90.58;100258.50;5115700;28;20043;-65
2022/01/05 05:58:59;;;;;;;13.15;3.10;;;;;;;2.15;90.93;100261.91;5115297;28;20387;-65
2022/01/05 06:01:25;;;;;;;19.73;3.67;;;;;;;2.13;91.49;100263.59;5115398;28;20043;-64
2022/01/05 06:03:50;;;;;;;11.60;3.28;;;;;;;2.16;91.71;100258.47;5115332;28;20030;-66
2022/01/05 06:06:15;;;;;;;19.58;3.38;;;;;;;2.07;90.92;100254.94;5115276;28;20027;-65
2022/01/05 06:08:41;;;;;;;16.17;3.45;;;;;;;2.10;91.38;100259.25;5114956;28;20038;-68
2022/01/05 06:11:07;;;;;;;22.85;4.45;;;;;;;2.18;90.29;100267.97;5115419;28;20059;-65
2022/01/05 06:13:32;;;;;;;13.65;2.88;;;;;;;2.10;90.26;100257.53;5114890;28;20047;-64
2022/01/05 06:15:57;;;;;;;12.02;2.83;;;;;;;2.19;90.29;100258.50;5115283;28;20054;-66
2022/01/05 06:18:23;;;;;;;15.82;3.50;;;;;;;2.18;90.16;100264.50;5115260;28;20032;-65
2022/01/05 06:20:48;;;;;;;17.00;3.00;;;;;;;2.00;91.22;100255.72;5115245;28;20055;-65
2022/01/05 06:23:13;;;;;;;12.82;3.08;;;;;;;2.03;90.96;100263.50;5114823;28;20453;-65
2022/01/05 06:25:39;;;;;;;16.02;3.25;;;;;;;2.00;91.21;100265.19;5115260;28;20027;-65
2022/01/05 06:28:08;;;;;;;17.38;3.10;;;;;;;2.04;91.62;100264.38;5115236;28;20435;-66
2022/01/05 06:30:34;;;;;;;10.60;3.65;;;;;;;1.99;90.96;100263.44;5115248;28;20035;-66
2022/01/05 06:32:59;;;;;;;16.33;3.70;;;;;;;2.03;91.31;100278.97;5115235;28;20499;-66
2022/01/05 06:35:24;;;;;;;16.15;3.65;;;;;;;2.06;92.03;100280.75;5114998;28;20054;-65
2022/01/05 06:37:51;;;;;;;19.95;3.70;;;;;;;1.96;91.86;100272.00;5114931;28;20039;-66
2022/01/05 06:40:16;;;;;;;16.83;3.08;;;;;;;2.05;92.25;100284.16;5115289;28;20019;-67
2022/01/05 06:42:42;;;;;;;18.45;3.47;;;;;;;2.09;91.89;100288.50;5114836;28;20027;-65
2022/01/05 06:45:07;;;;;;;15.77;3.20;;;;;;;2.16;91.29;100292.88;5116919;28;20028;-64
2022/01/05 06:47:33;;;;;;;14.75;3.17;;;;;;;2.20;91.22;100297.25;5119273;28;20027;-65
2022/01/05 06:49:58;;;;;;;17.60;4.03;;;;;;;2.19;90.87;100299.81;5100662;28;20039;-63
2022/01/05 06:52:23;;;;;;;18.67;3.60;;;;;;;2.21;90.95;100303.28;5118274;28;20520;-65
2022/01/05 06:54:49;;;;;;;13.43;3.58;;;;;;;2.17;91.31;100302.38;5118402;28;20032;-65
2022/01/05 06:57:14;;;;;;;11.43;3.30;;;;;;;2.09;91.82;100306.56;5118651;28;20084;-63
2022/01/05 06:59:39;;;;;;;18.05;3.88;;;;;;;2.09;91.45;100304.84;5118509;28;20362;-65
2022/01/05 07:02:05;;;;;;;17.25;3.55;;;;;;;2.23;90.29;100310.19;5118689;28;20107;-65
2022/01/05 07:04:31;;;;;;;21.05;4.18;;;;;;;2.12;91.87;100324.66;5118612;28;20024;-64
2022/01/05 07:06:56;;;;;;;13.90;3.72;;;;;;;2.19;92.93;100331.66;5117886;28;20043;-65
2022/01/05 07:09:21;;;;;;;19.35;3.70;;;;;;;2.20;92.48;100327.34;5118437;28;20035;-64
2022/01/05 07:11:46;;;;;;;16.52;3.13;;;;;;;2.20;91.69;100323.06;5118958;28;20038;-66
2022/01/05 07:14:12;;;;;;;21.70;4.53;;;;;;;2.22;92.68;100344.59;5118268;28;20351;-67
2022/01/05 07:16:37;;;;;;;19.92;3.83;;;;;;;2.28;92.09;100334.31;5118404;28;20043;-67
2022/01/05 07:19:02;;;;;;;18.75;3.72;;;;;;;2.32;91.65;100330.94;5118313;28;20040;-64
2022/01/05 07:21:29;;;;;;;12.90;4.28;;;;;;;2.28;92.42;100334.31;5117640;28;20032;-64
2022/01/05 07:23:54;;;;;;;17.30;4.07;;;;;;;2.31;92.38;100330.91;5117971;28;20423;-65
2022/01/05 07:26:21;;;;;;;19.40;3.35;;;;;;;2.33;92.90;100342.13;5118301;28;20027;-65
2022/01/05 07:28:46;;;;;;;17.70;3.78;;;;;;;2.31;92.25;100347.28;5118293;28;20031;-65
2022/01/05 07:31:11;;;;;;;14.88;3.80;;;;;;;2.35;92.65;100343.00;5118141;28;20030;-64
2022/01/05 07:33:37;;;;;;;17.67;4.70;;;;;;;2.32;93.10;100346.44;5118102;28;20019;-64
2022/01/05 07:36:02;;;;;;;13.45;3.40;;;;;;;2.34;93.25;100351.59;5117948;28;20039;-66
2022/01/05 07:38:29;;;;;;;19.20;4.47;;;;;;;2.37;93.16;100357.69;5117791;28;20137;-65
2022/01/05 07:40:54;;;;;;;16.70;3.90;;;;;;;2.47;93.03;100361.22;5117609;28;20366;-63
2022/01/05 07:43:22;;;;;;;15.52;3.90;;;;;;;2.40;93.36;100349.97;5117636;28;20027;-66
2022/01/05 07:45:47;;;;;;;21.40;3.97;;;;;;;2.44;93.14;100353.44;5117963;28;20031;-64
2022/01/05 07:48:12;;;;;;;13.93;3.58;;;;;;;2.53;93.40;100363.03;5117990;28;20034;-63
2022/01/05 07:50:37;;;;;;;14.85;3.80;;;;;;;2.56;93.47;100363.06;5117683;28;20357;-63
2022/01/05 07:53:04;;;;;;;11.35;3.60;;;;;;;2.59;93.17;100368.25;5117652;28;20074;-65
2022/01/05 07:55:30;;;;;;;13.80;3.25;;;;;;;2.57;93.75;100367.38;5117611;28;20036;-65
2022/01/05 07:57:56;;;;;;;13.95;3.42;;;;;;;2.62;93.37;100374.31;5117589;28;20054;-63
2022/01/05 08:00:22;;;;;;;12.82;3.33;;;;;;;2.68;93.27;100376.09;5112197;28;20036;-64
2022/01/05 08:02:47;;;;;;;15.95;3.47;;;;;;;2.74;94.02;100378.75;5095837;28;20081;-64
2022/01/05 08:05:12;;;;;;;17.75;3.60;;;;;;;2.79;93.56;100383.09;5096451;28;20040;-64
2022/01/05 08:07:38;;;;;;;20.02;3.50;;;;;;;2.88;93.40;100387.50;5097034;28;20024;-64
2022/01/05 08:10:04;;;;;;;14.75;3.35;;;;;;;2.90;93.52;100396.16;5096674;28;20411;-64
2022/01/05 08:12:29;;;;;;;19.73;3.67;;;;;;;2.94;92.96;100397.06;5096266;28;20036;-66
2022/01/05 08:14:54;;;;;;;18.50;3.50;;;;;;;3.06;92.90;100400.63;5096900;28;20080;-64
2022/01/05 08:17:19;;;;;;;20.10;3.58;;;;;;;3.05;92.71;100406.63;5096648;28;20059;-66
2022/01/05 08:19:45;;;;;;;16.17;3.47;;;;;;;3.09;93.63;100407.53;5095803;28;20050;-65
2022/01/05 08:22:10;;;;;;;20.35;3.75;;;;;;;3.13;92.45;100404.97;5096331;28;20067;-67
2022/01/05 08:24:36;;;;;;;13.90;3.20;;;;;;;3.13;93.17;100404.13;5096379;28;20439;-66
2022/01/05 08:27:01;;;;;;;17.67;3.55;;;;;;;3.18;92.79;100411.91;5096449;28;20043;-66
2022/01/05 08:29:27;;;;;;;17.15;3.30;;;;;;;3.20;92.73;100405.06;5096135;28;20394;-64
2022/01/05 08:31:52;;;;;;;20.88;3.45;;;;;;;3.24;92.44;100410.28;5096288;28;20073;-65
2022/01/05 08:34:17;;;;;;;15.68;3.67;;;;;;;3.28;92.44;100408.59;5096376;28;20032;-67
2022/01/05 08:36:43;;;;;;;17.38;3.55;;;;;;;3.29;92.99;100405.16;5096010;28;20585;-65
2022/01/05 08:39:08;;;;;;;12.55;3.25;;;;;;;3.36;92.40;100406.91;5096236;28;20024;-64
2022/01/05 08:41:33;;;;;;;21.40;3.90;;;;;;;3.38;92.77;100406.09;5095840;28;20039;-66
2022/01/05 08:43:59;;;;;;;19.73;3.38;;;;;;;3.42;92.36;100397.50;5095808;28;20036;-65
2022/01/05 08:46:24;;;;;;;12.50;3.38;;;;;;;3.62;91.62;100405.44;5101354;28;20031;-65
2022/01/05 08:48:49;;;;;;;15.50;3.10;;;;;;;3.68;91.38;100414.94;5105098;28;20435;-65
2022/01/05 08:51:15;;;;;;;17.98;3.13;;;;;;;3.69;90.02;100407.19;5105300;28;20028;-65
2022/01/05 08:53:40;;;;;;;16.90;3.35;;;;;;;3.68;90.79;100415.81;5106820;28;20111;-64
2022/01/05 08:56:07;;;;;;;15.65;3.15;;;;;;;3.70;90.66;100418.41;5104231;28;20057;-64
2022/01/05 08:58:33;;;;;;;16.05;3.17;;;;;;;3.57;90.84;100412.28;5105074;28;20023;-66
2022/01/05 09:00:58;;;;;;;15.95;2.95;;;;;;;3.58;90.45;100408.84;5106317;28;21350;-65
2022/01/05 09:03:24;;;;;;;16.55;3.08;;;;;;;3.55;91.51;100420.88;5103838;28;20036;-64
2022/01/05 09:05:49;;;;;;;16.50;3.05;;;;;;;3.61;90.76;100424.38;5097399;28;20127;-62
2022/01/05 09:08:14;;;;;;;18.02;3.28;;;;;;;3.78;90.71;100434.88;5094622;28;20096;-65
2022/01/05 09:10:40;;;;;;;16.77;3.22;;;;;;;3.93;89.82;100437.56;5095598;28;20076;-64
2022/01/05 09:13:06;;;;;;;22.33;3.72;;;;;;;4.07;89.78;100435.91;5095566;28;20400;-66
2022/01/05 09:15:34;;;;;;;19.65;3.33;;;;;;;4.14;89.09;100422.16;5095505;28;20454;-64
2022/01/05 09:17:59;;;;;;;14.07;3.25;;;;;;;4.21;89.79;100433.41;5095472;28;20036;-67
2022/01/05 09:20:25;;;;;;;18.83;3.28;;;;;;;4.24;88.63;100433.44;5095077;28;20040;-65
2022/01/05 09:22:50;;;;;;;18.45;3.00;;;;;;;4.30;87.48;100432.59;5095086;28;20028;-66
2022/01/05 09:25:18;;;;;;;15.05;2.90;;;;;;;4.43;86.86;100434.41;5095279;28;20351;-59
2022/01/05 09:27:45;;;;;;;16.92;3.10;;;;;;;4.38;87.54;100436.94;5095210;28;20398;-65
2022/01/05 09:30:12;;;;;;;16.00;3.22;;;;;;;4.46;86.78;100439.59;5095218;28;20097;-65
2022/01/05 09:32:39;;;;;;;15.10;3.30;;;;;;;4.44;87.32;100446.50;5095140;28;20405;-65
2022/01/05 09:35:06;;;;;;;13.13;2.80;;;;;;;4.51;87.21;100456.88;5094796;28;20036;-65
2022/01/05 09:37:35;;;;;;;16.52;3.47;;;;;;;4.61;86.48;100465.56;5095018;28;20089;-66
2022/01/05 09:42:45;;;;;;;12.93;3.13;;;;;;;4.50;89.20;100481.06;5094812;28;20058;-66
2022/01/05 09:45:22;;;;;;;15.07;3.03;;;;;;;4.44;89.40;100478.44;5094424;28;20442;-66
2022/01/05 09:48:15;;;;;;;15.90;3.40;;;;;;;4.46;90.04;100484.50;5108924;28;20050;-63
2022/01/05 09:51:02;;;;;;;19.13;3.65;;;;;;;4.43;89.70;100489.66;5114688;28;20054;-59
2022/01/05 09:53:30;;;;;;;16.95;3.15;;;;;;;4.43;89.45;100487.06;5116577;28;20408;-62
2022/01/05 09:55:56;;;;;;;18.40;3.05;;;;;;;4.35;90.52;100487.88;5114931;28;20031;-60
2022/01/05 09:58:23;;;;;;;15.02;3.13;;;;;;;4.39;90.04;100487.91;5115171;28;20043;-64
2022/01/05 10:00:50;;;;;;;23.85;3.33;;;;;;;4.23;92.28;100485.22;5114936;28;20426;-63
2022/01/05 10:03:15;;;;;;;16.95;2.70;;;;;;;4.32;90.09;100488.75;5114987;28;20084;-64
2022/01/05 10:05:42;;;;;;;15.52;3.08;;;;;;;4.38;89.99;100496.53;5115248;28;20380;-64
2022/01/05 10:08:07;;;;;;;14.55;2.80;;;;;;;4.26;91.72;100480.94;5114952;28;20066;-63
2022/01/05 10:10:33;;;;;;;17.05;3.33;;;;;;;4.27;91.01;100482.66;5111152;28;20659;-63
2022/01/05 10:12:58;;;;;;;11.15;2.20;;;;;;;4.46;89.48;100471.56;5105015;28;20044;-64
2022/01/05 10:15:26;;;;;;;15.18;3.15;;;;;;;4.43;90.50;100493.97;5112186;28;20039;-63
2022/01/05 10:18:08;;;;;;;19.67;2.95;;;;;;;4.53;90.33;100493.16;5114949;28;20024;-64
2022/01/05 10:20:33;;;;;;;13.73;2.72;;;;;;;4.49;90.60;100500.06;5117778;28;20035;-63
2022/01/05 10:22:58;;;;;;;15.73;3.10;;;;;;;4.51;90.77;100494.88;5118969;28;20315;-64
2022/01/05 10:25:24;;;;;;;19.90;3.30;;;;;;;4.63;89.88;100499.28;5119209;28;20027;-63
2022/01/05 10:28:01;;;;;;;19.80;3.05;;;;;;;4.81;90.24;100501.97;5119176;28;20434;-65
2022/01/05 10:30:38;;;;;;;17.33;2.97;;;;;;;4.96;90.17;100511.53;5118535;28;20454;-65
2022/01/05 10:33:04;;;;;;;16.42;2.67;;;;;;;5.13;88.52;100500.34;5118646;28;20070;-63
2022/01/05 10:35:29;;;;;;;15.73;2.90;;;;;;;5.24;87.32;100498.63;5118690;28;20405;-64
2022/01/05 10:37:58;;;;;;;16.08;2.83;;;;;;;5.32;88.27;100495.22;5119009;28;20080;-65
2022/01/05 10:40:24;;;;;;;16.25;2.97;;;;;;;5.35;88.40;100503.88;5118896;28;20035;-66
2022/01/05 10:42:55;;;;;;;15.35;3.13;;;;;;;5.41;86.61;100503.00;5118798;28;20362;-64
2022/01/05 10:45:40;;;;;;;14.85;3.08;;;;;;;5.41;86.05;100506.47;5118601;28;20031;-65
2022/01/05 10:48:12;;;;;;;14.50;2.47;;;;;;;5.48;87.19;100505.63;5118077;28;20059;-63
2022/01/05 10:50:38;;;;;;;16.55;3.28;;;;;;;5.46;85.21;100514.25;5118323;28;20078;-64
2022/01/05 10:53:05;;;;;;;16.75;3.20;;;;;;;5.51;85.25;100520.34;5118417;28;20036;-64
2022/01/05 10:55:39;;;;;;;15.40;3.35;;;;;;;5.62;85.43;100523.81;5118339;28;20435;-64
2022/01/05 10:58:06;;;;;;;17.42;2.92;;;;;;;5.71;84.30;100531.63;5118121;28;20122;-63
2022/01/05 11:00:44;;;;;;;18.58;2.80;;;;;;;5.79;84.77;100531.59;5118009;28;20101;-61
2022/01/05 11:03:24;;;;;;;21.40;3.35;;;;;;;5.84;84.76;100530.75;5118413;28;20127;-66
2022/01/05 11:06:12;;;;;;;16.75;3.03;;;;;;;6.12;84.62;100548.97;5118767;28;20066;-65
2022/01/05 11:08:46;;;;;;;17.88;3.25;;;;;;;6.17;83.11;100519.53;5107011;28;20023;-65
2022/01/05 11:11:30;;;;;;;23.13;3.13;;;;;;;6.34;82.81;100542.91;5118342;28;20027;-65
2022/01/05 11:13:55;;;;;;;13.50;2.67;;;;;;;6.25;82.00;100537.69;5117817;28;20459;-63
2022/01/05 11:16:28;;;;;;;13.45;2.80;;;;;;;6.33;81.79;100550.69;5117387;28;20027;-65
2022/01/05 11:19:22;;;;;;;14.73;3.05;;;;;;;6.30;83.49;100564.56;5117075;28;20027;-65
2022/01/05 11:22:14;;;;;;;14.93;3.00;;;;;;;6.26;83.03;100548.09;5116529;28;20033;-64
2022/01/05 11:24:48;;;;;;;18.23;3.53;;;;;;;6.20;82.89;100555.03;5096566;28;20515;-65
2022/01/05 11:27:16;;;;;;;19.95;2.97;;;;;;;6.14;83.00;100550.69;5106528;28;20048;-65